Time;durP1;ratioP1;P1;durP2;ratioP2;P2;SDS_P1;SDS_P2;PMS_P1;PMS_P2;Temp;Humidity;BMP_temperature;BMP_pressure;BME280_temperature;BME280_humidity;BME280_pressure;Samples;Min_cycle;Max_cycle;Signal;HPM_P1;HPM_P2
2023/05/10 00:00:46;;;;;;;3.50;1.97;;;;;;;20.30;55.04;100782.19;5046407;28;20116;-71
2023/05/10 00:03:11;;;;;;;3.30;1.80;;;;;;;20.29;55.14;100780.50;5044209;28;20284;-71
2023/05/10 00:05:36;;;;;;;3.92;1.85;;;;;;;20.29;55.34;100779.66;5030839;28;20636;-69
2023/05/10 00:08:02;;;;;;;3.72;2.10;;;;;;;20.27;54.96;100782.44;5044550;28;20040;-70
2023/05/10 00:10:27;;;;;;;4.20;2.00;;;;;;;20.26;55.15;100783.41;5060936;28;20045;-70
2023/05/10 00:12:52;;;;;;;3.35;1.73;;;;;;;20.26;54.90;100783.41;5050141;28;20488;-71
2023/05/10 00:15:18;;;;;;;4.45;2.33;;;;;;;20.28;55.07;100776.19;5058015;28;20033;-71
2023/05/10 00:17:43;;;;;;;4.43;1.95;;;;;;;20.26;55.03;100780.78;5046324;28;20464;-71
2023/05/10 00:20:09;;;;;;;4.03;2.10;;;;;;;20.26;55.12;100778.13;5041073;28;20037;-70
2023/05/10 00:22:35;;;;;;;4.38;2.60;;;;;;;20.24;55.04;100771.31;5041084;28;20033;-72
2023/05/10 00:25:00;;;;;;;4.35;2.30;;;;;;;20.25;54.71;100779.13;5042907;28;20483;-70
2023/05/10 00:27:25;;;;;;;4.43;2.28;;;;;;;20.25;54.81;100773.81;5060670;28;20032;-70
2023/05/10 00:29:51;;;;;;;4.65;2.50;;;;;;;20.22;54.95;100775.91;5046951;28;20041;-71
2023/05/10 00:32:16;;;;;;;4.13;2.28;;;;;;;20.27;54.71;100784.28;5022933;28;20147;-71
2023/05/10 00:34:41;;;;;;;4.17;2.50;;;;;;;20.25;54.82;100781.78;5052433;28;20533;-70
2023/05/10 00:37:07;;;;;;;3.92;2.53;;;;;;;20.25;54.91;100775.63;5056940;28;20288;-70
2023/05/10 00:39:32;;;;;;;5.53;2.70;;;;;;;20.17;54.90;100762.25;5051502;28;20051;-71
2023/05/10 00:41:57;;;;;;;5.68;2.83;;;;;;;20.25;55.19;100783.56;5059786;28;20264;-70
2023/05/10 00:44:22;;;;;;;4.40;2.70;;;;;;;20.23;54.72;100777.56;5024586;28;20036;-71
2023/05/10 00:46:49;;;;;;;4.72;2.60;;;;;;;20.22;54.74;100771.47;5040689;28;20029;-71
2023/05/10 00:49:15;;;;;;;5.15;2.90;;;;;;;20.22;54.44;100779.41;5040911;28;20116;-72
2023/05/10 00:51:42;;;;;;;4.22;2.45;;;;;;;20.20;54.81;100776.06;5044725;28;20041;-70
2023/05/10 00:54:08;;;;;;;4.70;3.10;;;;;;;20.24;54.79;100779.25;5054316;28;20131;-72
2023/05/10 00:56:33;;;;;;;5.15;2.80;;;;;;;20.24;54.64;100779.25;5053170;28;20393;-72
2023/05/10 00:58:59;;;;;;;4.80;3.30;;;;;;;20.19;54.88;100766.44;5049391;28;20036;-72
2023/05/10 01:01:25;;;;;;;4.82;3.13;;;;;;;20.20;54.93;100767.28;5048151;28;20025;-72
2023/05/10 01:03:50;;;;;;;5.10;3.10;;;;;;;20.19;54.69;100766.44;5043614;28;20029;-71
2023/05/10 01:06:16;;;;;;;5.78;3.22;;;;;;;20.22;54.63;100774.09;5057752;28;20074;-71
2023/05/10 01:08:41;;;;;;;5.30;3.35;;;;;;;20.22;54.57;100773.25;5053465;28;20040;-69
2023/05/10 01:11:06;;;;;;;5.78;3.50;;;;;;;20.21;54.65;100769.78;5040502;28;20052;-70
2023/05/10 01:13:37;;;;;;;5.47;3.90;;;;;;;20.20;54.80;100769.91;5047042;28;20085;-71
2023/05/10 01:16:04;;;;;;;5.10;3.45;;;;;;;20.18;54.89;100766.59;5037574;28;21211;-71
2023/05/10 01:18:31;;;;;;;9.63;4.47;;;;;;;20.18;54.77;100766.59;5048055;28;20130;-71
2023/05/10 01:21:10;;;;;;;6.55;4.10;;;;;;;20.17;54.80;100773.69;5050707;28;20039;-70
2023/05/10 01:23:44;;;;;;;6.82;4.68;;;;;;;20.19;55.01;100778.84;5051034;28;20316;-72
2023/05/10 01:26:49;;;;;;;7.50;4.75;;;;;;;20.21;54.65;100771.59;5056325;28;20033;-72
2023/05/10 01:29:23;;;;;;;6.75;4.32;;;;;;;20.20;54.47;100768.13;5046640;28;20065;-70
2023/05/10 01:32:04;;;;;;;7.25;4.80;;;;;;;20.17;54.79;100764.91;5053409;28;20086;-70
2023/05/10 01:34:47;;;;;;;7.40;4.82;;;;;;;20.16;54.68;100758.78;5051035;28;20043;-69
2023/05/10 01:37:21;;;;;;;6.95;4.95;;;;;;;20.14;54.70;100765.19;5037179;28;20464;-71
2023/05/10 01:40:12;;;;;;;7.95;5.45;;;;;;;20.15;54.54;100765.03;5060973;28;20541;-71
2023/05/10 01:42:45;;;;;;;8.13;5.13;;;;;;;20.16;54.84;100765.91;5054161;28;20047;-72
2023/05/10 01:45:22;;;;;;;7.87;5.27;;;;;;;20.15;54.84;100767.69;5053362;28;20041;-71
2023/05/10 01:47:58;;;;;;;7.40;5.68;;;;;;;20.11;54.53;100761.03;5054940;28;20063;-71
2023/05/10 01:50:29;;;;;;;7.82;5.82;;;;;;;20.14;54.85;100762.53;5050635;28;20179;-73
2023/05/10 01:52:57;;;;;;;9.32;6.00;;;;;;;20.11;54.81;100759.19;5033459;28;20025;-70
2023/05/10 01:55:27;;;;;;;8.73;6.47;;;;;;;20.15;54.77;100774.81;5054444;28;20189;-70
2023/05/10 01:58:02;;;;;;;8.32;5.70;;;;;;;20.11;54.67;100774.25;5062732;28;20482;-71
2023/05/10 02:00:29;;;;;;;8.70;6.63;;;;;;;20.15;54.73;100774.81;5050419;28;20028;-71
2023/05/10 02:02:55;;;;;;;8.68;6.30;;;;;;;20.13;54.71;100777.59;5044856;28;20037;-71
2023/05/10 02:05:22;;;;;;;8.13;5.93;;;;;;;20.09;54.81;100770.88;5043783;28;20028;-70
2023/05/10 02:07:49;;;;;;;9.43;6.50;;;;;;;20.10;54.79;100776.03;5025384;28;20032;-70
2023/05/10 02:10:15;;;;;;;9.45;6.90;;;;;;;20.11;54.74;100779.53;5043341;28;20043;-71
2023/05/10 02:12:43;;;;;;;8.90;6.72;;;;;;;20.11;54.80;100777.72;5043019;28;20029;-71
2023/05/10 02:15:10;;;;;;;9.45;7.18;;;;;;;20.13;54.78;100785.53;5058145;28;20036;-70
2023/05/10 02:17:37;;;;;;;10.02;7.18;;;;;;;20.11;54.74;100783.00;5025105;28;20158;-70
2023/05/10 02:20:06;;;;;;;9.57;7.75;;;;;;;20.13;54.79;100795.28;5047280;28;20025;-70
2023/05/10 02:22:32;;;;;;;11.85;8.63;;;;;;;20.10;54.79;100789.28;5050278;28;20093;-70
2023/05/10 02:24:59;;;;;;;9.98;8.18;;;;;;;20.13;54.62;100797.94;5060780;28;20044;-70
2023/05/10 02:27:27;;;;;;;10.60;7.90;;;;;;;20.12;54.59;100794.41;5044397;28;20062;-71
2023/05/10 02:29:53;;;;;;;12.15;8.82;;;;;;;20.11;54.73;100792.78;5063163;28;20110;-70
2023/05/10 02:32:19;;;;;;;12.77;9.43;;;;;;;20.08;54.60;100791.22;5062498;28;20468;-70
2023/05/10 02:34:45;;;;;;;11.48;9.27;;;;;;;20.09;54.66;100794.69;5037695;28;20051;-70
2023/05/10 02:37:13;;;;;;;12.73;9.80;;;;;;;20.10;54.58;100794.56;5041929;28;20177;-71
2023/05/10 02:39:43;;;;;;;12.38;9.57;;;;;;;20.09;54.56;100792.91;5045682;28;20639;-71
2023/05/10 02:42:14;;;;;;;11.30;9.27;;;;;;;20.09;54.66;100800.84;5047717;28;20069;-71
2023/05/10 02:44:41;;;;;;;11.25;9.15;;;;;;;20.11;54.61;100803.34;5058704;28;20408;-71
2023/05/10 02:47:07;;;;;;;13.15;10.27;;;;;;;20.03;54.73;100792.63;5042751;28;20111;-70
2023/05/10 02:49:32;;;;;;;11.50;9.73;;;;;;;20.09;54.73;100794.69;5048868;28;20123;-70
2023/05/10 02:52:02;;;;;;;12.88;9.88;;;;;;;20.09;54.51;100798.19;5046821;28;20043;-71
2023/05/10 02:54:31;;;;;;;13.32;9.80;;;;;;;20.08;54.48;100796.53;5052365;28;20064;-70
2023/05/10 02:57:02;;;;;;;12.32;10.27;;;;;;;20.09;54.46;100797.34;5059385;28;20053;-71
2023/05/10 02:59:28;;;;;;;12.10;9.88;;;;;;;20.09;54.61;100807.94;5061000;28;20086;-71
2023/05/10 03:01:53;;;;;;;11.40;9.45;;;;;;;20.07;54.50;100805.41;5052622;28;20033;-70
2023/05/10 03:04:19;;;;;;;11.40;9.48;;;;;;;20.09;54.48;100802.63;5056414;28;20075;-71
2023/05/10 03:06:44;;;;;;;11.75;9.73;;;;;;;20.07;54.57;100810.72;5056889;28;20025;-69
2023/05/10 03:09:12;;;;;;;11.80;9.85;;;;;;;20.07;54.68;100799.31;5049675;28;20028;-72
2023/05/10 03:11:49;;;;;;;11.20;9.32;;;;;;;20.06;54.58;100809.06;5058337;28;20072;-70
2023/05/10 03:14:41;;;;;;;12.43;10.63;;;;;;;20.05;54.45;100802.09;5041882;28;20056;-71
2023/05/10 03:17:15;;;;;;;11.93;10.15;;;;;;;20.05;54.62;100809.19;5053776;28;20028;-71
2023/05/10 03:19:55;;;;;;;13.40;9.65;;;;;;;20.05;54.37;100809.19;5058855;28;20036;-71
2023/05/10 03:22:59;;;;;;;14.68;10.18;;;;;;;20.06;54.60;100811.69;5044950;28;20549;-70
2023/05/10 03:25:25;;;;;;;11.95;9.65;;;;;;;20.07;54.51;100810.72;5047355;28;20044;-72
2023/05/10 03:27:51;;;;;;;12.70;9.57;;;;;;;20.03;54.53;100806.69;5043811;28;20039;-70
2023/05/10 03:30:19;;;;;;;10.95;9.60;;;;;;;20.07;54.54;100812.53;5052179;28;20499;-71
2023/05/10 03:32:44;;;;;;;13.82;9.60;;;;;;;20.06;54.50;100816.13;5043620;28;20123;-71
2023/05/10 03:35:12;;;;;;;12.60;10.32;;;;;;;20.05;54.54;100822.41;5060687;28;20143;-71
2023/05/10 03:37:37;;;;;;;13.13;10.32;;;;;;;20.05;54.35;100817.13;5050430;28;20033;-70
2023/05/10 03:40:03;;;;;;;12.07;9.70;;;;;;;20.03;54.53;100814.63;5041470;28;20047;-70
2023/05/10 03:42:28;;;;;;;10.85;9.18;;;;;;;20.05;54.52;100822.41;5058197;28;20031;-70
2023/05/10 03:44:54;;;;;;;11.25;9.00;;;;;;;20.02;54.45;100822.69;5056719;28;20037;-72
2023/05/10 03:47:19;;;;;;;12.00;8.60;;;;;;;20.05;54.45;100823.25;5056528;28;20097;-71
2023/05/10 03:49:45;;;;;;;13.13;9.43;;;;;;;19.96;54.59;100818.78;5047310;28;20033;-71
2023/05/10 03:52:10;;;;;;;11.98;9.63;;;;;;;20.03;54.43;100825.19;5041567;28;20552;-70
2023/05/10 03:54:36;;;;;;;11.15;9.20;;;;;;;20.03;54.47;100825.19;5045500;28;20107;-70
2023/05/10 03:57:02;;;;;;;12.85;9.52;;;;;;;20.03;54.50;100830.50;5042759;28;20029;-70
2023/05/10 03:59:28;;;;;;;11.57;9.57;;;;;;;20.00;54.50;100828.13;5050684;28;20457;-71
2023/05/10 04:01:53;;;;;;;11.90;9.57;;;;;;;20.01;54.53;100831.59;5043206;28;20056;-70
2023/05/10 04:04:20;;;;;;;15.02;10.27;;;;;;;20.02;54.61;100833.28;5042756;28;20871;-72
2023/05/10 04:06:46;;;;;;;12.30;9.48;;;;;;;20.01;54.52;100836.88;5053950;28;20083;-70
2023/05/10 04:09:11;;;;;;;12.15;9.73;;;;;;;20.00;54.35;100833.41;5043051;28;20062;-70
2023/05/10 04:11:36;;;;;;;13.88;9.82;;;;;;;20.02;54.39;100842.03;5060792;28;20865;-71
2023/05/10 04:14:02;;;;;;;13.93;10.30;;;;;;;20.02;54.46;100841.22;5047165;28;20052;-72
2023/05/10 04:16:27;;;;;;;14.70;11.30;;;;;;;20.01;54.32;100840.38;5040972;28;20073;-72
2023/05/10 04:18:52;;;;;;;13.52;11.10;;;;;;;20.00;54.35;100838.69;5041048;28;20141;-70
2023/05/10 04:21:18;;;;;;;15.85;11.98;;;;;;;20.03;54.51;100842.91;5051433;28;20032;-71
2023/05/10 04:23:43;;;;;;;15.02;12.18;;;;;;;19.97;54.41;100833.69;5057952;28;20029;-71
2023/05/10 04:26:08;;;;;;;17.40;12.73;;;;;;;19.97;54.34;100836.34;5030405;28;20032;-71
2023/05/10 04:28:34;;;;;;;16.55;13.02;;;;;;;20.00;54.23;100849.28;5059936;28;20024;-71
2023/05/10 04:31:03;;;;;;;16.00;12.52;;;;;;;19.99;54.33;100844.13;5042407;28;20039;-70
2023/05/10 04:33:29;;;;;;;19.75;13.48;;;;;;;20.01;54.31;100843.03;5052500;28;20033;-69
2023/05/10 04:35:54;;;;;;;17.73;12.77;;;;;;;20.01;54.34;100844.81;5041350;28;20055;-71
2023/05/10 04:38:19;;;;;;;17.00;13.82;;;;;;;19.97;54.19;100838.97;5047432;28;20388;-71
2023/05/10 04:40:45;;;;;;;17.35;13.27;;;;;;;19.94;54.03;100837.44;5059107;28;20082;-72
2023/05/10 04:43:10;;;;;;;17.67;12.90;;;;;;;19.97;54.28;100838.97;5054558;28;20024;-73
2023/05/10 04:45:35;;;;;;;15.73;12.30;;;;;;;19.97;54.16;100846.91;5060230;28;20385;-70
2023/05/10 04:48:01;;;;;;;14.90;11.73;;;;;;;19.96;54.25;100850.50;5063947;28;20118;-71
2023/05/10 04:50:26;;;;;;;14.45;11.45;;;;;;;19.98;54.27;100848.59;5052047;28;20028;-72
2023/05/10 04:52:51;;;;;;;15.77;11.75;;;;;;;19.92;54.19;100842.03;5055055;28;20032;-69
2023/05/10 04:55:16;;;;;;;17.30;11.32;;;;;;;19.96;54.15;100852.34;5047084;28;20059;-71
2023/05/10 04:57:42;;;;;;;14.80;10.90;;;;;;;19.98;53.85;100855.66;5046139;28;20039;-72
2023/05/10 05:00:08;;;;;;;13.30;11.00;;;;;;;19.97;54.21;100852.19;5058308;28;20047;-72
2023/05/10 05:02:33;;;;;;;16.05;11.20;;;;;;;19.96;53.97;100854.97;5044425;28;20254;-72
2023/05/10 05:04:58;;;;;;;13.40;10.80;;;;;;;19.91;54.25;100848.28;5033534;28;20043;-72
2023/05/10 05:07:24;;;;;;;12.32;9.40;;;;;;;19.94;54.10;100850.66;5062175;28;20064;-72
2023/05/10 05:09:49;;;;;;;13.65;10.13;;;;;;;19.96;54.07;100861.09;5059598;28;20032;-72
2023/05/10 05:12:14;;;;;;;12.98;9.40;;;;;;;19.94;53.98;100849.81;5049304;28;20064;-71
2023/05/10 05:14:41;;;;;;;11.73;9.50;;;;;;;19.94;54.13;100860.41;5063991;28;20146;-71
2023/05/10 05:17:06;;;;;;;12.52;9.98;;;;;;;19.96;54.01;100866.38;5046115;28;20443;-72
2023/05/10 05:19:31;;;;;;;13.75;10.38;;;;;;;19.93;54.03;100866.66;5048807;28;20147;-71
2023/05/10 05:21:57;;;;;;;13.77;10.18;;;;;;;19.96;53.96;100870.84;5026307;28;20412;-72
2023/05/10 05:24:22;;;;;;;12.07;9.70;;;;;;;19.94;53.71;100868.34;5056459;28;20067;-71
2023/05/10 05:26:47;;;;;;;12.80;9.32;;;;;;;19.91;54.11;100869.44;5053433;28;20688;-71
2023/05/10 05:29:13;;;;;;;14.32;9.75;;;;;;;19.91;54.17;100865.97;5061569;28;20112;-71
2023/05/10 05:31:38;;;;;;;12.95;9.95;;;;;;;19.93;53.89;100878.09;5048817;28;20280;-70
2023/05/10 05:34:03;;;;;;;12.68;9.27;;;;;;;19.92;54.03;100883.53;5063748;28;20041;-74
2023/05/10 05:36:29;;;;;;;11.70;9.25;;;;;;;19.87;54.02;100873.34;5048264;28;20068;-76
2023/05/10 05:38:54;;;;;;;11.60;9.37;;;;;;;19.89;54.01;100886.44;5044218;28;20033;-72
2023/05/10 05:41:21;;;;;;;13.35;9.15;;;;;;;19.86;54.08;100882.25;5041166;28;20293;-72
2023/05/10 05:43:46;;;;;;;10.82;8.27;;;;;;;19.84;54.08;100884.19;5043934;28;20083;-72
2023/05/10 05:46:11;;;;;;;11.32;8.38;;;;;;;19.85;54.22;100882.38;5044796;28;20041;-71
2023/05/10 05:48:37;;;;;;;11.18;8.63;;;;;;;19.85;54.08;100877.94;5038832;28;20249;-71
2023/05/10 05:51:02;;;;;;;11.48;8.93;;;;;;;19.90;54.10;100890.72;5051710;28;20087;-71
2023/05/10 05:53:27;;;;;;;11.90;8.43;;;;;;;19.90;54.18;100882.78;5056176;28;20391;-73
2023/05/10 05:55:58;;;;;;;10.80;8.52;;;;;;;19.89;54.20;100886.44;5051156;28;20044;-72
2023/05/10 05:58:24;;;;;;;12.25;8.32;;;;;;;19.90;53.86;100890.72;5048585;28;20589;-73
2023/05/10 06:00:50;;;;;;;11.88;8.52;;;;;;;19.92;54.09;100894.94;5056756;28;21061;-72
2023/05/10 06:03:15;;;;;;;11.75;8.10;;;;;;;19.92;53.96;100894.09;5053652;28;20418;-73
2023/05/10 06:05:41;;;;;;;10.57;8.20;;;;;;;19.89;54.10;100897.84;5043776;28;20087;-70
2023/05/10 06:08:06;;;;;;;10.60;8.20;;;;;;;19.92;54.11;100896.75;5053434;28;20049;-70
2023/05/10 06:10:31;;;;;;;9.25;7.40;;;;;;;19.91;54.16;100903.00;5047026;28;20037;-70
2023/05/10 06:12:57;;;;;;;10.57;8.32;;;;;;;19.90;54.08;100904.81;5061938;28;20033;-70
2023/05/10 06:15:22;;;;;;;12.05;8.20;;;;;;;19.90;54.24;100903.97;5062728;28;20139;-70
2023/05/10 06:17:49;;;;;;;10.02;7.28;;;;;;;19.89;54.41;100904.94;5057582;28;20068;-71
2023/05/10 06:20:15;;;;;;;9.90;7.65;;;;;;;19.84;54.18;100900.06;5045799;28;20039;-70
2023/05/10 06:22:40;;;;;;;10.30;7.72;;;;;;;19.85;54.37;100908.81;5053093;28;20060;-70
2023/05/10 06:25:06;;;;;;;10.93;7.93;;;;;;;19.84;54.44;100913.28;5046537;28;20469;-72
2023/05/10 06:27:31;;;;;;;10.73;7.78;;;;;;;19.90;54.16;100918.03;5049421;28;20069;-70
2023/05/10 06:29:57;;;;;;;10.65;7.13;;;;;;;19.89;54.35;100908.41;5060897;28;20040;-73
2023/05/10 06:32:22;;;;;;;10.43;7.60;;;;;;;19.91;54.48;100909.13;5049214;28;20127;-69
2023/05/10 06:34:47;;;;;;;10.15;7.55;;;;;;;19.92;54.73;100916.09;5039573;28;20037;-72
2023/05/10 06:37:13;;;;;;;11.52;7.18;;;;;;;19.92;54.71;100921.38;5042918;28;20037;-69
2023/05/10 06:39:38;;;;;;;14.50;7.57;;;;;;;19.88;55.12;100925.25;5044126;28;20527;-70
2023/05/10 06:42:04;;;;;;;9.90;7.50;;;;;;;19.80;55.54;100930.38;5041411;28;20036;-69
2023/05/10 06:44:30;;;;;;;10.30;7.13;;;;;;;19.77;55.73;100927.16;5047619;28;20518;-72
2023/05/10 06:46:56;;;;;;;9.32;6.80;;;;;;;19.78;55.62;100931.50;5045003;28;20033;-72
2023/05/10 06:49:22;;;;;;;12.68;7.50;;;;;;;19.76;55.67;100929.00;5047564;28;20032;-72
2023/05/10 06:51:48;;;;;;;9.10;6.95;;;;;;;19.78;55.54;100934.13;5023671;28;20439;-72
2023/05/10 06:54:13;;;;;;;10.13;6.50;;;;;;;19.75;55.68;100928.09;5044530;28;20080;-69
2023/05/10 06:56:39;;;;;;;11.77;7.00;;;;;;;19.73;55.77;100934.50;5037165;28;20140;-73
2023/05/10 06:59:04;;;;;;;10.85;7.10;;;;;;;19.71;56.07;100937.28;5037429;28;20036;-69
2023/05/10 07:01:29;;;;;;;8.95;6.28;;;;;;;19.69;56.40;100939.22;5046389;28;20033;-69
2023/05/10 07:03:55;;;;;;;10.38;7.53;;;;;;;19.65;56.36;100940.44;5025451;28;20055;-71
2023/05/10 07:06:20;;;;;;;9.63;6.68;;;;;;;19.69;56.55;100946.31;5021958;28;20067;-71
2023/05/10 07:08:46;;;;;;;9.45;7.20;;;;;;;19.72;56.31;100946.88;5037512;28;20060;-71
2023/05/10 07:11:11;;;;;;;11.48;7.07;;;;;;;19.74;56.30;100954.66;5020792;28;20724;-71
2023/05/10 07:13:38;;;;;;;10.80;6.85;;;;;;;19.74;56.22;100952.88;5034320;28;20149;-72
2023/05/10 07:16:06;;;;;;;9.85;6.53;;;;;;;19.88;55.84;100956.16;5028883;28;20029;-73
2023/05/10 07:18:31;;;;;;;9.02;6.25;;;;;;;20.05;55.40;100954.69;5055017;28;20097;-74
2023/05/10 07:20:57;;;;;;;10.23;6.30;;;;;;;20.11;54.94;100954.97;5043508;28;20029;-74
2023/05/10 07:23:22;;;;;;;10.95;6.40;;;;;;;20.20;54.71;100963.09;5049358;28;20123;-75
2023/05/10 07:25:49;;;;;;;10.63;6.03;;;;;;;20.23;54.71;100968.09;5037598;28;20056;-75
2023/05/10 07:28:15;;;;;;;9.15;5.65;;;;;;;20.23;54.43;100963.63;5047822;28;20033;-73
2023/05/10 07:30:42;;;;;;;9.68;5.90;;;;;;;20.24;54.59;100975.09;5045113;28;20036;-73
2023/05/10 07:33:09;;;;;;;7.93;5.95;;;;;;;20.23;54.64;100970.75;5052249;28;20166;-74
2023/05/10 07:35:35;;;;;;;10.30;5.43;;;;;;;20.22;54.60;100980.50;5052938;28;20024;-74
2023/05/10 07:38:00;;;;;;;8.48;5.80;;;;;;;20.20;54.77;100974.53;5056078;28;20029;-74
2023/05/10 07:40:26;;;;;;;8.48;5.20;;;;;;;20.19;54.65;100974.66;5026417;28;20085;-74
2023/05/10 07:42:51;;;;;;;7.90;5.43;;;;;;;20.19;54.83;100975.47;5059786;28;20028;-75
2023/05/10 07:45:17;;;;;;;9.93;5.38;;;;;;;20.20;54.84;100979.81;5035788;28;20044;-74
2023/05/10 07:47:42;;;;;;;8.73;4.97;;;;;;;20.21;54.67;100978.81;5048193;28;20044;-75
2023/05/10 07:50:08;;;;;;;9.50;5.20;;;;;;;20.21;54.72;100983.28;5040320;28;20127;-74
2023/05/10 07:52:33;;;;;;;8.30;4.95;;;;;;;20.21;54.87;100984.13;5056234;28;20043;-75
2023/05/10 07:54:58;;;;;;;8.30;4.78;;;;;;;20.20;54.93;100987.75;5044725;28;20129;-73
2023/05/10 07:57:24;;;;;;;5.97;4.30;;;;;;;20.16;54.96;100988.97;5047146;28;20037;-72
2023/05/10 07:59:49;;;;;;;9.57;4.78;;;;;;;20.13;54.83;100996.34;5042800;28;20274;-73
2023/05/10 08:02:15;;;;;;;7.35;4.18;;;;;;;20.04;55.69;100997.97;5017388;28;20044;-71
2023/05/10 08:04:40;;;;;;;8.98;4.25;;;;;;;20.02;55.88;100998.13;5039590;28;20032;-76
2023/05/10 08:07:05;;;;;;;9.50;4.40;;;;;;;19.97;55.92;100999.50;5023789;28;20047;-71
2023/05/10 08:09:31;;;;;;;6.63;4.18;;;;;;;19.96;55.93;100998.66;5038006;28;20028;-74
2023/05/10 08:11:58;;;;;;;8.57;4.35;;;;;;;19.98;56.26;100998.50;5034768;28;20038;-75
2023/05/10 08:14:24;;;;;;;6.13;3.72;;;;;;;19.97;56.03;101004.78;5025364;28;20136;-70
2023/05/10 08:16:49;;;;;;;7.20;3.45;;;;;;;20.03;55.95;101012.19;5041221;28;20124;-69
2023/05/10 08:19:18;;;;;;;7.20;3.70;;;;;;;20.07;55.80;101011.78;5034847;28;20037;-71
2023/05/10 08:21:44;;;;;;;8.10;3.28;;;;;;;20.06;55.69;101011.91;5039059;28;20534;-69
2023/05/10 08:24:09;;;;;;;7.53;3.55;;;;;;;20.08;55.69;101018.75;5038115;28;20032;-73
2023/05/10 08:26:34;;;;;;;6.35;3.35;;;;;;;20.10;55.71;101023.91;5043537;28;20029;-74
2023/05/10 08:29:00;;;;;;;8.55;3.13;;;;;;;20.10;55.78;101031.84;5044922;28;20032;-70
2023/05/10 08:31:25;;;;;;;6.22;3.00;;;;;;;20.04;55.94;101019.97;5039853;28;20043;-72
2023/05/10 08:33:52;;;;;;;8.40;3.40;;;;;;;20.05;56.09;101026.94;5024088;28;20041;-70
2023/05/10 08:36:21;;;;;;;7.38;3.00;;;;;;;20.02;55.91;101029.84;5031353;28;20381;-71
2023/05/10 08:38:49;;;;;;;9.40;3.60;;;;;;;20.01;56.12;101022.91;5040363;28;20170;-71
2023/05/10 08:41:15;;;;;;;7.20;3.60;;;;;;;19.98;56.09;101024.97;5039801;28;20041;-71
2023/05/10 08:43:45;;;;;;;7.32;3.08;;;;;;;19.96;56.29;101021.63;5024374;28;20036;-73
2023/05/10 08:46:15;;;;;;;7.07;3.17;;;;;;;20.05;55.96;101028.78;5025892;28;20037;-70
2023/05/10 08:48:42;;;;;;;7.70;3.25;;;;;;;20.07;55.99;101030.28;5017146;28;20102;-75
2023/05/10 08:51:09;;;;;;;7.07;3.03;;;;;;;20.06;56.17;101030.44;5029799;28;20025;-72
2023/05/10 08:53:36;;;;;;;5.70;3.00;;;;;;;20.11;55.99;101033.53;5023028;28;20118;-71
2023/05/10 08:56:03;;;;;;;8.95;3.20;;;;;;;20.11;56.28;101037.00;5043640;28;20407;-71
2023/05/10 08:58:28;;;;;;;7.68;2.78;;;;;;;20.12;55.94;101029.91;5017180;28;20495;-68
2023/05/10 09:00:54;;;;;;;5.07;2.72;;;;;;;20.13;56.02;101039.53;5039730;28;20032;-70
2023/05/10 09:03:19;;;;;;;5.28;2.60;;;;;;;20.09;56.20;101028.38;5037611;28;20614;-71
2023/05/10 09:05:45;;;;;;;6.45;2.53;;;;;;;20.13;55.91;101036.88;5045595;28;20035;-68
2023/05/10 09:08:12;;;;;;;5.30;2.55;;;;;;;20.10;55.99;101030.03;5039461;28;20033;-73
2023/05/10 09:10:39;;;;;;;4.60;2.60;;;;;;;20.14;55.56;101035.06;5019654;28;20064;-75
2023/05/10 09:13:07;;;;;;;5.35;2.50;;;;;;;20.14;55.88;101030.63;5031320;28;20713;-72
2023/05/10 09:15:32;;;;;;;4.88;2.53;;;;;;;20.18;55.79;101033.84;5039216;28;20033;-68
2023/05/10 09:17:59;;;;;;;7.20;2.40;;;;;;;20.20;55.53;101038.03;5020716;28;20039;-68
2023/05/10 09:20:24;;;;;;;7.03;2.75;;;;;;;20.23;55.51;101031.63;5041033;28;20041;-69
2023/05/10 09:22:49;;;;;;;4.85;2.42;;;;;;;20.24;55.54;101036.78;5043636;28;20044;-71
2023/05/10 09:25:16;;;;;;;5.68;2.60;;;;;;;20.20;56.02;101045.09;5013775;28;20092;-70
2023/05/10 09:27:45;;;;;;;7.63;2.60;;;;;;;20.21;56.06;101044.97;5031045;28;20589;-69
2023/05/10 09:30:16;;;;;;;5.60;2.60;;;;;;;20.19;56.08;101046.09;5043975;28;20040;-68
2023/05/10 09:32:47;;;;;;;8.23;2.03;;;;;;;20.11;56.08;101034.34;5036420;28;20247;-72
2023/05/10 09:35:15;;;;;;;5.43;2.17;;;;;;;20.16;56.53;101043.72;5046503;28;20439;-70
2023/05/10 09:37:42;;;;;;;7.25;2.70;;;;;;;20.13;56.30;101042.16;5043853;28;20512;-69
2023/05/10 09:40:11;;;;;;;6.90;2.40;;;;;;;20.14;56.31;101043.84;5046204;28;20934;-69
2023/05/10 09:42:37;;;;;;;5.10;2.42;;;;;;;20.15;56.46;101053.44;5039380;28;20032;-70
2023/05/10 09:45:04;;;;;;;7.35;2.40;;;;;;;20.18;55.94;101050.53;5045759;28;20078;-74
2023/05/10 09:47:32;;;;;;;6.25;2.30;;;;;;;20.16;56.35;101059.59;5048267;28;20036;-75
2023/05/10 09:50:02;;;;;;;6.43;2.30;;;;;;;20.19;56.31;101067.28;5043761;28;20372;-74
2023/05/10 09:52:28;;;;;;;5.78;2.30;;;;;;;20.13;56.35;101060.69;5043345;28;20039;-72
2023/05/10 09:54:54;;;;;;;5.97;2.40;;;;;;;20.16;56.13;101067.53;5044762;28;20040;-71
2023/05/10 09:57:25;;;;;;;4.75;2.22;;;;;;;20.15;56.14;101063.19;5051309;28;20048;-70
2023/05/10 09:59:50;;;;;;;7.22;2.28;;;;;;;20.18;55.99;101070.88;5054149;28;20029;-73
2023/05/10 10:02:16;;;;;;;3.60;1.90;;;;;;;20.17;56.04;101069.19;5054658;28;20365;-70
2023/05/10 10:04:42;;;;;;;4.47;1.98;;;;;;;20.16;56.13;101068.34;5050247;28;20075;-72
2023/05/10 10:07:08;;;;;;;5.43;2.22;;;;;;;20.16;56.27;101067.53;5040561;28;20119;-71
2023/05/10 10:09:34;;;;;;;3.90;1.90;;;;;;;20.19;56.10;101062.81;5051880;28;20037;-70
2023/05/10 10:12:01;;;;;;;4.35;1.83;;;;;;;20.21;56.11;101075.91;5055657;28;20445;-71
2023/05/10 10:14:28;;;;;;;3.67;1.70;;;;;;;20.22;56.08;101072.25;5047086;28;20103;-73
2023/05/10 10:16:53;;;;;;;8.35;2.10;;;;;;;20.22;56.09;101075.78;5034283;28;20055;-73
2023/05/10 10:19:20;;;;;;;4.60;2.08;;;;;;;20.23;56.02;101080.06;5049965;28;20037;-73
2023/05/10 10:21:45;;;;;;;7.97;2.17;;;;;;;20.24;56.00;101075.63;5055599;28;20081;-74
2023/05/10 10:24:10;;;;;;;4.25;1.80;;;;;;;20.25;56.02;101066.72;5034331;28;20032;-71
2023/05/10 10:26:38;;;;;;;4.07;1.80;;;;;;;20.22;56.01;101067.84;5050194;28;20029;-74
2023/05/10 10:29:25;;;;;;;4.95;2.13;;;;;;;20.22;56.38;101067.84;5053376;28;20273;-74
2023/05/10 10:32:19;;;;;;;4.60;2.08;;;;;;;20.24;56.20;101071.19;5052117;28;20028;-71
2023/05/10 10:34:45;;;;;;;;;;;;;;;20.29;55.97;101063.66;5056200;28;20028;-73
2023/05/10 10:37:10;;;;;;;3.65;1.92;;;;;;;20.28;55.79;101062.00;5049417;28;19928;-73
2023/05/10 10:39:36;;;;;;;4.00;2.13;;;;;;;20.33;55.92;101063.41;5054435;28;20029;-71
2023/05/10 10:42:03;;;;;;;5.03;2.08;;;;;;;20.43;55.58;101061.66;5049735;28;20159;-71
2023/05/10 10:44:33;;;;;;;4.00;1.92;;;;;;;20.52;55.33;101060.84;5053829;28;20040;-71
2023/05/10 10:47:08;;;;;;;5.22;2.03;;;;;;;20.58;55.44;101070.88;5049174;28;20150;-70
2023/05/10 10:49:38;;;;;;;3.88;1.85;;;;;;;20.60;54.99;101068.06;5052924;28;20040;-71
2023/05/10 10:52:20;;;;;;;4.05;1.90;;;;;;;20.62;54.90;101066.16;5036587;28;20408;-70
2023/05/10 10:55:05;;;;;;;8.75;3.05;;;;;;;20.56;55.19;101072.00;5047035;28;20048;-72
2023/05/10 10:57:48;;;;;;;7.95;2.83;;;;;;;20.42;55.29;101067.91;5054978;28;20119;-72
2023/05/10 11:00:30;;;;;;;6.85;2.90;;;;;;;20.36;55.90;101063.13;5047902;28;20040;-68
2023/05/10 11:03:06;;;;;;;7.28;2.63;;;;;;;20.33;55.86;101066.06;5050645;28;20040;-71
2023/05/10 11:05:37;;;;;;;7.70;2.67;;;;;;;20.33;56.01;101071.34;5050638;28;20032;-68
2023/05/10 11:08:28;;;;;;;7.85;2.63;;;;;;;20.28;56.24;101069.94;5054184;28;20072;-70
2023/05/10 11:11:03;;;;;;;8.63;3.10;;;;;;;20.28;56.15;101074.38;5049750;28;20376;-71
2023/05/10 11:13:33;;;;;;;9.57;3.08;;;;;;;20.25;56.02;101072.00;5050687;28;20508;-70
2023/05/10 11:16:09;;;;;;;9.50;3.40;;;;;;;20.24;56.23;101065.88;5054277;28;20037;-71
2023/05/10 11:18:36;;;;;;;6.68;2.95;;;;;;;20.28;56.18;101067.31;5042784;28;20029;-70
2023/05/10 11:21:04;;;;;;;7.40;3.15;;;;;;;20.34;55.91;101068.56;5041336;28;20041;-70
2023/05/10 11:23:49;;;;;;;7.97;3.35;;;;;;;20.37;55.92;101072.75;5054664;28;20043;-71